createdAt,value
2018-07-15T00:00:14.097Z,21.90
2018-07-15T00:02:42.050Z,21.37
2018-07-15T00:05:09.978Z,22.30
2018-07-15T00:07:37.916Z,22.30
2018-07-15T00:10:05.860Z,20.70
2018-07-15T00:12:33.801Z,22.10
2018-07-15T00:15:01.893Z,20.07
2018-07-15T00:17:29.986Z,21.13
2018-07-15T00:19:58.708Z,22.43
2018-07-15T00:22:26.921Z,20.50
2018-07-15T00:24:55.409Z,20.33
2018-07-15T00:27:23.496Z,20.07
2018-07-15T00:29:51.545Z,21.27
2018-07-15T00:32:19.633Z,21.00
2018-07-15T00:34:47.712Z,20.53
2018-07-15T00:37:15.744Z,20.90
2018-07-15T00:39:43.657Z,22.47
2018-07-15T00:42:11.621Z,21.47
2018-07-15T00:44:39.533Z,22.37
2018-07-15T00:47:08.421Z,22.50
2018-07-15T00:49:36.377Z,21.23
2018-07-15T00:52:04.321Z,19.53
2018-07-15T00:54:32.319Z,19.90
2018-07-15T00:57:00.502Z,21.20
2018-07-15T00:59:28.660Z,22.00
2018-07-15T01:01:56.976Z,21.67
2018-07-15T01:04:26.346Z,20.57
2018-07-15T01:06:54.481Z,20.47
2018-07-15T01:09:22.457Z,21.87
2018-07-15T01:11:50.414Z,20.50
2018-07-15T01:14:18.493Z,21.67
2018-07-15T01:16:46.622Z,21.97
2018-07-15T01:19:14.631Z,21.50
2018-07-15T01:21:42.553Z,19.80
2018-07-15T01:24:10.489Z,20.77
2018-07-15T01:26:38.442Z,21.00
2018-07-15T01:29:06.396Z,19.70
2018-07-15T01:31:34.344Z,21.53
2018-07-15T01:34:02.433Z,20.60
2018-07-15T01:36:30.480Z,22.30
2018-07-15T01:38:58.874Z,19.97
2018-07-15T01:41:27.109Z,20.90
2018-07-15T01:43:55.340Z,16.73
2018-07-15T01:46:23.764Z,15.77
2018-07-15T01:48:51.693Z,16.13
2018-07-15T01:51:19.776Z,14.87
2018-07-15T01:53:47.691Z,16.10
2018-07-15T01:56:15.792Z,14.97
2018-07-15T01:58:43.703Z,13.77
2018-07-15T02:01:11.640Z,13.73
2018-07-15T02:03:39.583Z,14.60
2018-07-15T02:06:07.510Z,14.60
2018-07-15T02:08:35.449Z,15.50
2018-07-15T02:11:03.439Z,13.67
2018-07-15T02:13:31.562Z,14.10
2018-07-15T02:15:59.624Z,13.63
2018-07-15T02:18:27.936Z,12.23
2018-07-15T02:20:56.036Z,13.77
2018-07-15T02:23:25.068Z,13.13
2018-07-15T02:25:53.107Z,14.40
2018-07-15T02:28:21.736Z,12.73
2018-07-15T02:30:49.693Z,14.10
2018-07-15T02:33:17.815Z,13.30
2018-07-15T02:35:46.042Z,14.30
2018-07-15T02:38:13.978Z,12.90
2018-07-15T02:40:41.931Z,14.80
2018-07-15T02:43:09.887Z,13.60
2018-07-15T02:45:37.820Z,13.70
2018-07-15T02:48:05.980Z,14.60
2018-07-15T02:50:33.935Z,15.00
2018-07-15T02:53:02.717Z,14.43
2018-07-15T02:55:30.813Z,15.23
2018-07-15T02:57:59.018Z,14.30
2018-07-15T03:00:28.733Z,14.47
2018-07-15T03:02:58.099Z,13.60
2018-07-15T03:05:26.526Z,15.47
2018-07-15T03:07:54.834Z,16.63
2018-07-15T03:10:22.812Z,14.80
2018-07-15T03:12:51.406Z,16.23
2018-07-15T03:15:19.392Z,14.90
2018-07-15T03:17:47.629Z,17.43
2018-07-15T03:20:15.780Z,15.03
2018-07-15T03:22:43.882Z,15.50
2018-07-15T03:25:12.212Z,15.27
2018-07-15T03:27:40.381Z,15.10
2018-07-15T03:30:09.304Z,14.97
2018-07-15T03:32:37.613Z,16.80
2018-07-15T03:35:05.814Z,16.37
2018-07-15T03:37:34.778Z,16.63
2018-07-15T03:40:02.773Z,16.27
2018-07-15T03:42:30.857Z,16.47
2018-07-15T03:44:59.162Z,16.30
2018-07-15T03:47:27.377Z,15.20
2018-07-15T03:49:55.635Z,16.80
2018-07-15T03:52:23.693Z,15.67
2018-07-15T03:54:51.617Z,14.37
2018-07-15T03:57:19.556Z,14.90
2018-07-15T03:59:47.477Z,13.90
2018-07-15T04:02:15.608Z,12.50
2018-07-15T04:04:43.547Z,12.53
2018-07-15T04:07:12.006Z,11.87
2018-07-15T04:09:40.160Z,11.53
2018-07-15T04:12:08.085Z,10.87
2018-07-15T04:14:36.034Z,11.80
2018-07-15T04:17:03.957Z,11.40
2018-07-15T04:19:32.084Z,10.90
2018-07-15T04:22:00.194Z,11.03
2018-07-15T04:24:28.375Z,11.30
2018-07-15T04:26:56.647Z,11.80
2018-07-15T04:29:25.082Z,10.30
2018-07-15T04:31:52.992Z,9.93
2018-07-15T04:34:20.895Z,9.97
2018-07-15T04:36:48.830Z,9.40
2018-07-15T04:39:16.960Z,10.90
2018-07-15T04:41:44.916Z,9.03
2018-07-15T04:44:12.831Z,9.20
2018-07-15T04:46:41.517Z,9.57
2018-07-15T04:49:09.500Z,9.43
2018-07-15T04:51:37.453Z,9.17
2018-07-15T04:54:05.689Z,10.57
2018-07-15T04:56:33.774Z,9.90
2018-07-15T04:59:01.853Z,10.67
2018-07-15T05:01:29.933Z,9.93
2018-07-15T05:03:58.158Z,10.17
2018-07-15T05:06:26.488Z,8.90
2018-07-15T05:08:54.844Z,9.53
2018-07-15T05:11:22.839Z,9.80
2018-07-15T05:13:50.869Z,9.20
2018-07-15T05:16:18.981Z,11.20
2018-07-15T05:18:47.070Z,9.47
2018-07-15T05:21:15.061Z,9.77
2018-07-15T05:23:42.980Z,9.77
2018-07-15T05:26:10.966Z,11.17
2018-07-15T05:28:38.859Z,11.40
2018-07-15T05:31:06.843Z,10.17
2018-07-15T05:33:34.837Z,10.70
2018-07-15T05:36:02.950Z,9.87
2018-07-15T05:38:31.168Z,9.33
2018-07-15T05:40:59.297Z,10.17
2018-07-15T05:43:27.582Z,9.80
2018-07-15T05:45:55.828Z,11.13
2018-07-15T05:48:23.884Z,9.47
2018-07-15T05:50:51.806Z,9.90
2018-07-15T05:53:20.410Z,9.17
2018-07-15T05:55:48.592Z,10.27
2018-07-15T05:58:16.704Z,9.40
2018-07-15T06:00:44.701Z,11.03
2018-07-15T06:03:12.645Z,11.70
2018-07-15T06:05:40.601Z,10.60
2018-07-15T06:08:08.514Z,10.90
2018-07-15T06:10:36.487Z,11.10
2018-07-15T06:13:04.509Z,10.33
2018-07-15T06:15:32.620Z,10.80
2018-07-15T06:18:00.695Z,9.90
2018-07-15T06:20:28.872Z,9.50
2018-07-15T06:22:56.983Z,9.60
2018-07-15T06:25:25.144Z,8.90
2018-07-15T06:27:53.134Z,8.73
2018-07-15T06:30:21.613Z,9.00
2018-07-15T06:32:49.561Z,9.17
2018-07-15T06:35:17.670Z,9.07
2018-07-15T06:37:45.788Z,9.60
2018-07-15T06:40:13.711Z,8.70
2018-07-15T06:42:41.716Z,8.60
2018-07-15T06:45:09.644Z,8.73
2018-07-15T06:47:37.589Z,8.40
2018-07-15T06:50:05.616Z,8.70
2018-07-15T06:52:33.565Z,8.03
2018-07-15T06:55:01.679Z,9.03
2018-07-15T06:57:29.813Z,7.40
2018-07-15T06:59:58.036Z,7.77
2018-07-15T07:02:26.368Z,7.60
2018-07-15T07:04:54.989Z,8.67
2018-07-15T07:07:23.041Z,8.07
2018-07-15T07:09:50.961Z,8.67
2018-07-15T07:12:19.034Z,7.83
2018-07-15T07:14:47.222Z,8.80
2018-07-15T07:17:15.266Z,7.03
2018-07-15T07:19:43.192Z,7.63
2018-07-15T07:22:11.188Z,7.20
2018-07-15T07:24:39.200Z,7.53
2018-07-15T07:27:07.142Z,8.17
2018-07-15T07:29:35.329Z,7.53
2018-07-15T07:32:03.314Z,8.20
2018-07-15T07:34:31.530Z,7.60
2018-07-15T07:36:59.623Z,7.43
2018-07-15T07:39:28.069Z,8.27
2018-07-15T07:41:56.617Z,7.50
2018-07-15T07:44:24.994Z,7.40
2018-07-15T07:46:53.029Z,8.13
2018-07-15T07:49:20.889Z,9.23
2018-07-15T07:51:48.894Z,8.17
2018-07-15T07:54:16.948Z,7.43
2018-07-15T07:56:44.959Z,6.80
2018-07-15T07:59:12.872Z,6.17
2018-07-15T08:01:40.794Z,7.00
2018-07-15T08:04:08.744Z,6.60
2018-07-15T08:06:36.650Z,6.17
2018-07-15T08:09:05.280Z,6.70
2018-07-15T08:11:33.522Z,6.80
2018-07-15T08:14:01.821Z,7.33
2018-07-15T08:16:29.995Z,6.20
2018-07-15T08:18:58.277Z,5.43
2018-07-15T08:21:26.605Z,5.47
2018-07-15T08:23:54.899Z,5.47
2018-07-15T08:26:22.852Z,5.93
2018-07-15T08:28:50.940Z,5.00
2018-07-15T08:31:19.845Z,5.77
2018-07-15T08:33:47.935Z,5.93
2018-07-15T08:36:16.134Z,5.83
2018-07-15T08:38:44.409Z,5.93
2018-07-15T08:41:12.332Z,5.40
2018-07-15T08:43:40.252Z,5.00
2018-07-15T08:46:08.363Z,5.63
2018-07-15T08:48:36.255Z,5.23
2018-07-15T08:51:04.449Z,5.10
2018-07-15T08:53:32.555Z,6.27
2018-07-15T08:56:00.784Z,5.33
2018-07-15T08:58:29.212Z,5.53
2018-07-15T09:00:57.904Z,4.50
2018-07-15T09:03:26.320Z,4.80
2018-07-15T09:05:54.408Z,5.50
2018-07-15T09:08:22.345Z,5.20
2018-07-15T09:10:51.277Z,6.40
2018-07-15T09:13:19.292Z,5.27
2018-07-15T09:15:47.253Z,5.13
2018-07-15T09:18:15.464Z,5.10
2018-07-15T09:20:43.420Z,4.43
2018-07-15T09:23:11.373Z,4.90
2018-07-15T09:25:39.325Z,5.10
2018-07-15T09:28:07.375Z,5.40
2018-07-15T09:30:35.726Z,5.63
2018-07-15T09:33:03.677Z,4.40
2018-07-15T09:35:31.814Z,4.80
2018-07-15T09:38:00.137Z,4.80
2018-07-15T09:40:28.416Z,5.00
2018-07-15T09:42:57.438Z,4.50
2018-07-15T09:45:25.751Z,5.20
2018-07-15T09:47:54.673Z,4.80
2018-07-15T09:50:22.623Z,3.60
2018-07-15T09:52:50.567Z,5.07
2018-07-15T09:55:18.615Z,4.27
2018-07-15T09:57:46.870Z,4.47
2018-07-15T10:00:20.261Z,5.00
2018-07-15T10:02:48.592Z,5.23
2018-07-15T10:05:16.725Z,4.73
2018-07-15T10:07:44.664Z,4.87
2018-07-15T10:10:12.921Z,4.80
2018-07-15T10:12:40.906Z,5.03
2018-07-15T10:15:08.876Z,4.30
2018-07-15T10:17:36.782Z,4.33
2018-07-15T10:20:05.067Z,4.80
2018-07-15T10:22:33.121Z,4.17
2018-07-15T10:25:01.396Z,4.77
2018-07-15T10:27:29.789Z,3.80
2018-07-15T10:29:57.985Z,4.83
2018-07-15T10:32:26.210Z,4.30
2018-07-15T10:34:54.284Z,4.73
2018-07-15T10:37:22.191Z,4.30
2018-07-15T10:39:50.139Z,3.60
2018-07-15T10:42:18.246Z,3.70
2018-07-15T10:44:46.292Z,5.10
2018-07-15T10:47:14.227Z,4.03
2018-07-15T10:49:42.157Z,4.77
2018-07-15T10:52:10.075Z,4.60
2018-07-15T10:54:38.077Z,4.40
2018-07-15T10:57:06.244Z,4.03
2018-07-15T10:59:34.160Z,4.07
2018-07-15T11:02:02.406Z,3.97
2018-07-15T11:04:30.546Z,3.87
2018-07-15T11:06:58.684Z,3.90
2018-07-15T11:09:26.893Z,4.27
2018-07-15T11:11:55.884Z,4.20
2018-07-15T11:14:24.378Z,3.83
2018-07-15T11:16:52.304Z,4.43
2018-07-15T11:19:20.259Z,4.80
2018-07-15T11:21:48.258Z,4.10
2018-07-15T11:24:16.346Z,4.00
2018-07-15T11:26:44.314Z,3.97
2018-07-15T11:29:12.232Z,4.40
2018-07-15T11:31:40.171Z,4.23
2018-07-15T11:34:08.118Z,4.93
2018-07-15T11:36:36.076Z,3.83
2018-07-15T11:39:05.141Z,3.50
2018-07-15T11:41:33.133Z,5.10
2018-07-15T11:44:01.206Z,4.57
2018-07-15T11:46:29.619Z,3.97
2018-07-15T11:48:58.113Z,4.40
2018-07-15T11:51:26.352Z,4.40
2018-07-15T11:53:54.566Z,4.40
2018-07-15T11:56:22.737Z,5.10
2018-07-15T11:58:50.845Z,3.87
2018-07-15T12:01:18.819Z,3.00
2018-07-15T12:03:47.027Z,4.00
2018-07-15T12:06:15.105Z,4.17
2018-07-15T12:08:43.114Z,3.13
2018-07-15T12:11:11.091Z,3.50
2018-07-15T12:13:39.202Z,3.37
2018-07-15T12:16:07.742Z,3.93
2018-07-15T12:18:35.746Z,3.83
2018-07-15T12:21:03.758Z,4.20
2018-07-15T12:23:31.852Z,4.20
2018-07-15T12:25:59.899Z,3.93
2018-07-15T12:28:28.101Z,4.10
2018-07-15T12:30:56.307Z,4.47
2018-07-15T12:33:24.334Z,3.80
2018-07-15T12:35:52.533Z,4.10
2018-07-15T12:38:20.471Z,4.20
2018-07-15T12:40:48.424Z,4.40
2018-07-15T12:43:16.592Z,4.30
2018-07-15T12:45:44.543Z,3.40
2018-07-15T12:48:12.850Z,4.40
2018-07-15T12:50:40.796Z,4.50
2018-07-15T12:53:08.789Z,4.10
2018-07-15T12:55:36.754Z,4.23
2018-07-15T12:58:04.906Z,4.90
2018-07-15T13:00:33.014Z,4.57
2018-07-15T13:03:01.050Z,4.40
2018-07-15T13:05:29.426Z,3.60
2018-07-15T13:07:57.812Z,4.07
2018-07-15T13:10:26.115Z,4.00
2018-07-15T13:12:54.217Z,3.90
2018-07-15T13:15:22.544Z,4.80
2018-07-15T13:17:50.666Z,4.30
2018-07-15T13:20:18.637Z,4.00
2018-07-15T13:22:46.605Z,4.10
2018-07-15T13:25:14.529Z,4.00
2018-07-15T13:27:42.457Z,3.63
2018-07-15T13:30:10.409Z,4.10
2018-07-15T13:32:38.736Z,4.63
2018-07-15T13:35:06.991Z,4.20
2018-07-15T13:37:35.041Z,7.60
2018-07-15T13:40:03.250Z,4.50
2018-07-15T13:42:31.369Z,8.13
2018-07-15T13:44:59.520Z,5.30
2018-07-15T13:47:27.857Z,3.90
2018-07-15T13:49:56.408Z,5.17
2018-07-15T13:52:24.491Z,4.63
2018-07-15T13:54:52.423Z,3.90
2018-07-15T13:57:20.371Z,3.87
2018-07-15T13:59:48.326Z,4.00
2018-07-15T14:02:16.289Z,3.83
2018-07-15T14:04:44.204Z,4.77
2018-07-15T14:07:12.179Z,4.23
2018-07-15T14:09:40.101Z,4.10
2018-07-15T14:12:08.030Z,4.20
2018-07-15T14:14:36.258Z,4.00
2018-07-15T14:17:04.209Z,3.87
2018-07-15T14:19:32.349Z,4.30
2018-07-15T14:22:00.526Z,4.20
2018-07-15T14:24:28.744Z,4.73
2018-07-15T14:26:57.265Z,4.40
2018-07-15T14:29:25.745Z,4.70
2018-07-15T14:31:53.935Z,4.60
2018-07-15T14:34:21.909Z,4.40
2018-07-15T14:36:50.272Z,4.50
2018-07-15T14:39:18.280Z,3.97
2018-07-15T14:41:46.687Z,3.40
2018-07-15T14:44:14.669Z,4.27
2018-07-15T14:46:42.672Z,3.97
2018-07-15T14:49:10.564Z,4.57
2018-07-15T14:51:38.594Z,3.90
2018-07-15T14:54:06.589Z,4.43
2018-07-15T14:56:34.952Z,3.87
2018-07-15T14:59:03.116Z,4.33
2018-07-15T15:01:31.645Z,3.87
2018-07-15T15:03:59.769Z,4.10
2018-07-15T15:06:28.578Z,5.07
2018-07-15T15:08:56.969Z,4.70
2018-07-15T15:11:25.389Z,4.60
2018-07-15T15:13:54.683Z,4.77
2018-07-15T15:16:22.759Z,3.77
2018-07-15T15:18:51.087Z,4.47
2018-07-15T15:21:19.066Z,4.83
2018-07-15T15:23:46.988Z,5.43
2018-07-15T15:26:14.889Z,4.60
2018-07-15T15:28:42.809Z,4.50
2018-07-15T15:31:10.729Z,4.30
2018-07-15T15:33:38.717Z,4.80
2018-07-15T15:36:06.775Z,6.03
2018-07-15T15:38:34.714Z,5.80
2018-07-15T15:41:02.825Z,6.50
2018-07-15T15:43:31.000Z,6.97
2018-07-15T15:45:59.140Z,7.17
2018-07-15T15:48:27.372Z,8.50
2018-07-15T15:50:56.116Z,8.50
2018-07-15T15:53:25.002Z,6.93
2018-07-15T15:55:53.415Z,6.43
2018-07-15T15:58:21.409Z,7.90
2018-07-15T16:00:49.396Z,6.70
2018-07-15T16:03:17.349Z,7.00
2018-07-15T16:05:45.252Z,6.73
2018-07-15T16:08:13.198Z,6.27
2018-07-15T16:10:41.644Z,7.23
2018-07-15T16:13:09.914Z,6.63
2018-07-15T16:15:37.910Z,6.37
2018-07-15T16:18:05.953Z,5.50
2018-07-15T16:20:36.193Z,6.17
2018-07-15T16:23:04.446Z,5.27
2018-07-15T16:25:32.642Z,5.17
2018-07-15T16:28:04.980Z,7.67
2018-07-15T16:30:33.233Z,6.00
2018-07-15T16:33:01.595Z,5.70
2018-07-15T16:35:29.679Z,5.80
2018-07-15T16:37:57.672Z,6.13
2018-07-15T16:40:25.981Z,7.00
2018-07-15T16:42:54.525Z,7.23
2018-07-15T16:45:22.708Z,7.03
2018-07-15T16:47:50.754Z,6.67
2018-07-15T16:50:18.822Z,5.90
2018-07-15T16:52:47.126Z,5.80
2018-07-15T16:55:16.022Z,6.13
2018-07-15T16:57:44.022Z,6.00
2018-07-15T17:00:12.060Z,5.77
2018-07-15T17:02:40.021Z,5.97
2018-07-15T17:05:08.001Z,6.17
2018-07-15T17:07:35.984Z,6.10
2018-07-15T17:10:04.434Z,5.77
2018-07-15T17:12:32.416Z,6.87
2018-07-15T17:15:00.540Z,5.77
2018-07-15T17:17:29.398Z,6.17
2018-07-15T17:19:57.457Z,7.13
2018-07-15T17:22:26.872Z,6.10
2018-07-15T17:24:54.943Z,7.03
2018-07-15T17:27:23.578Z,6.47
2018-07-15T17:29:51.577Z,6.07
2018-07-15T17:32:19.506Z,7.37
2018-07-15T17:34:47.505Z,5.37
2018-07-15T17:37:15.584Z,5.70
2018-07-15T17:39:43.626Z,4.87
2018-07-15T17:42:11.729Z,6.50
2018-07-15T17:44:39.735Z,6.00
2018-07-15T17:47:07.758Z,5.40
2018-07-15T17:49:35.700Z,5.90
2018-07-15T17:52:03.864Z,5.03
2018-07-15T17:54:32.809Z,5.90
2018-07-15T17:57:01.533Z,4.80
2018-07-15T17:59:29.631Z,6.30
2018-07-15T18:01:58.507Z,4.80
2018-07-15T18:04:26.783Z,5.97
2018-07-15T18:06:55.529Z,6.63
2018-07-15T18:09:23.460Z,5.40
2018-07-15T18:11:51.565Z,5.07
2018-07-15T18:14:19.492Z,5.43
2018-07-15T18:16:47.497Z,6.17
2018-07-15T18:19:15.533Z,5.37
2018-07-15T18:21:43.729Z,6.17
2018-07-15T18:24:11.741Z,5.83
2018-07-15T18:26:39.701Z,6.50
2018-07-15T18:29:07.669Z,5.43
2018-07-15T18:31:36.164Z,6.20
2018-07-15T18:34:04.109Z,5.10
2018-07-15T18:36:32.149Z,4.87
2018-07-15T18:39:00.347Z,5.60
2018-07-15T18:41:28.509Z,6.30
2018-07-15T18:43:56.734Z,5.50
2018-07-15T18:46:24.938Z,5.13
2018-07-15T18:48:52.989Z,5.20
2018-07-15T18:51:20.935Z,4.90
2018-07-15T18:53:48.900Z,5.90
2018-07-15T18:56:17.089Z,5.23
2018-07-15T18:58:45.083Z,5.00
2018-07-15T19:01:13.109Z,5.63
2018-07-15T19:03:41.075Z,5.10
2018-07-15T19:08:43.265Z,5.23
2018-07-15T19:11:11.236Z,4.50
2018-07-15T19:13:39.262Z,5.90
2018-07-15T19:16:07.250Z,5.53
2018-07-15T19:18:35.369Z,5.83
2018-07-15T19:21:03.690Z,6.60
2018-07-15T19:23:31.902Z,5.80
2018-07-15T19:25:59.950Z,5.40
2018-07-15T19:28:28.943Z,5.90
2018-07-15T19:30:57.477Z,5.27
2018-07-15T19:33:25.856Z,4.87
2018-07-15T19:35:53.960Z,5.00
2018-07-15T19:38:21.987Z,5.90
2018-07-15T19:40:50.261Z,5.73
2018-07-15T19:43:18.228Z,7.03
2018-07-15T19:45:46.185Z,5.30
2018-07-15T19:48:14.195Z,6.23
2018-07-15T19:50:42.185Z,5.70
2018-07-15T19:53:10.122Z,6.03
2018-07-15T19:55:39.089Z,5.77
2018-07-15T19:58:07.229Z,6.50
2018-07-15T20:00:35.353Z,7.00
2018-07-15T20:03:03.553Z,6.10
2018-07-15T20:05:31.782Z,5.00
2018-07-15T20:08:00.107Z,6.10
2018-07-15T20:10:28.219Z,5.30
2018-07-15T20:12:56.514Z,6.20
2018-07-15T20:15:28.717Z,6.10
2018-07-15T20:17:58.550Z,6.50
2018-07-15T20:20:27.710Z,5.13
2018-07-15T20:22:56.158Z,6.10
2018-07-15T20:25:24.529Z,6.30
2018-07-15T20:27:52.497Z,6.37
2018-07-15T20:30:20.619Z,5.23
2018-07-15T20:32:48.665Z,6.00
2018-07-15T20:35:16.749Z,5.30
2018-07-15T20:37:44.722Z,6.47
2018-07-15T20:40:12.733Z,6.70
2018-07-15T20:42:40.749Z,5.50
2018-07-15T20:45:08.701Z,4.53
2018-07-15T20:47:36.670Z,5.53
2018-07-15T20:50:04.752Z,6.17
2018-07-15T20:58:24.602Z,6.50
2018-07-15T21:00:52.537Z,6.30
2018-07-15T21:03:20.562Z,6.73
2018-07-15T21:05:48.626Z,5.53
2018-07-15T21:08:16.580Z,5.77
2018-07-15T21:10:44.526Z,6.10
2018-07-15T21:13:12.676Z,6.90
2018-07-15T21:15:40.684Z,6.47
2018-07-15T21:18:08.765Z,6.70
2018-07-15T21:20:36.758Z,5.73
2018-07-15T21:23:04.841Z,5.63
2018-07-15T21:25:33.064Z,5.93
2018-07-15T21:28:01.193Z,6.13
2018-07-15T21:30:29.358Z,6.13
2018-07-15T21:32:57.806Z,6.20
2018-07-15T21:35:26.188Z,5.43
2018-07-15T21:37:54.454Z,7.33
2018-07-15T21:40:22.369Z,5.70
2018-07-15T21:42:50.569Z,5.73
2018-07-15T21:45:18.748Z,7.20
2018-07-15T21:47:47.048Z,5.93
2018-07-15T21:50:15.040Z,7.50
2018-07-15T21:52:42.984Z,6.47
2018-07-15T21:55:10.926Z,5.93
2018-07-15T21:57:38.893Z,6.70
2018-07-15T22:00:07.539Z,7.80
2018-07-15T22:02:35.484Z,6.47
2018-07-15T22:05:03.562Z,6.43
2018-07-15T22:07:37.129Z,6.83
2018-07-15T22:10:09.000Z,7.70
2018-07-15T22:12:36.970Z,6.27
2018-07-15T22:15:05.110Z,6.20
2018-07-15T22:17:33.172Z,6.10
2018-07-15T22:20:01.265Z,6.50
2018-07-15T22:22:29.469Z,6.90
2018-07-15T22:24:57.810Z,6.20
2018-07-15T22:27:26.200Z,6.60
2018-07-15T22:29:54.779Z,6.43
2018-07-15T22:32:23.183Z,6.30
2018-07-15T22:34:51.467Z,5.77
2018-07-15T22:37:19.553Z,7.47
2018-07-15T22:39:47.686Z,7.10
2018-07-15T22:42:15.650Z,6.23
2018-07-15T22:44:43.602Z,7.00
2018-07-15T22:47:11.567Z,5.77
2018-07-15T22:49:39.493Z,6.67
2018-07-15T22:52:07.464Z,7.40
2018-07-15T22:54:35.419Z,7.80
2018-07-15T22:57:03.585Z,7.67
2018-07-15T22:59:31.836Z,6.90
2018-07-15T23:02:00.104Z,7.10
2018-07-15T23:04:33.679Z,6.40
2018-07-15T23:07:02.237Z,6.37
2018-07-15T23:09:30.708Z,6.30
2018-07-15T23:11:59.512Z,6.67
2018-07-15T23:14:27.868Z,7.10
2018-07-15T23:16:56.187Z,7.77
2018-07-15T23:19:25.132Z,7.57
2018-07-15T23:21:53.084Z,7.60
2018-07-15T23:24:21.075Z,6.67
2018-07-15T23:26:49.140Z,8.27
2018-07-15T23:29:17.256Z,7.50
2018-07-15T23:31:46.286Z,8.07
2018-07-15T23:34:14.252Z,7.90
2018-07-15T23:36:42.210Z,7.90
2018-07-15T23:39:10.157Z,7.77
2018-07-15T23:41:38.153Z,8.77
2018-07-15T23:44:06.089Z,6.83
2018-07-15T23:46:34.177Z,8.53
2018-07-15T23:49:02.407Z,8.03
2018-07-15T23:51:30.520Z,7.57
2018-07-15T23:53:59.096Z,7.10
2018-07-15T23:56:27.746Z,6.90
2018-07-15T23:58:56.115Z,7.40
